Terminal Aerodrome Forecast
Issued by NWS Lake Charles, LA

Home | Current Version | Previous Version | Text Only | Print | Product List | Glossary On
Versions: 1 2 3 4 5 6 7 8 9 10 11 12 13 14 15 16 17 18 19 20 21 22 23
738
FTUS44 KLCH 191802 CCA
TAFBPT
TAF COR
KBPT 191802Z 1918/2018 24008KT P6SM -RA SCT007 OVC050
      TEMPO 1918/1921 4SM -SHRA OVC007
     FM192100 23008KT P6SM OVC007
     FM200100 21006KT 4SM BR OVC007
     FM200500 21005KT 1SM BR OVC004
     FM201500 21007KT 4SM BR OVC007=

USA.gov is the U.S. government's official web portal to all federal, state and local government web resources and services.